createdAt,value
2018-07-28T00:00:45.190Z,26.96
2018-07-28T00:02:00.143Z,26.83
2018-07-28T00:03:14.335Z,26.91
2018-07-28T00:04:28.267Z,26.86
2018-07-28T00:05:42.603Z,26.82
2018-07-28T00:06:57.075Z,26.83
2018-07-28T00:08:11.507Z,26.79
2018-07-28T00:09:25.842Z,26.81
2018-07-28T00:10:40.049Z,26.79
2018-07-28T00:11:54.714Z,26.78
2018-07-28T00:13:09.164Z,26.78
2018-07-28T00:14:23.853Z,26.83
2018-07-28T00:15:38.272Z,26.81
2018-07-28T00:16:53.071Z,26.63
2018-07-28T00:18:07.013Z,26.48
2018-07-28T00:19:21.962Z,26.6
2018-07-28T00:20:36.240Z,26.39
2018-07-28T00:21:50.168Z,26.24
2018-07-28T00:23:04.593Z,26.06
2018-07-28T00:24:18.785Z,26.04
2018-07-28T00:25:33.245Z,26.04
2018-07-28T00:26:47.925Z,26.11
2018-07-28T00:28:01.874Z,26.18
2018-07-28T00:29:16.080Z,26.29
2018-07-28T00:30:30.786Z,26.08
2018-07-28T00:31:44.485Z,26.22
2018-07-28T00:32:58.433Z,26.23
2018-07-28T00:34:12.710Z,26.31
2018-07-28T00:35:27.160Z,26.31
2018-07-28T00:36:41.871Z,26.48
2018-07-28T00:37:57.421Z,26.49
2018-07-28T00:39:11.646Z,26.44
2018-07-28T00:40:25.831Z,26.36
2018-07-28T00:41:40.593Z,26.37
2018-07-28T00:43:16.579Z,26.41
2018-07-28T00:44:30.998Z,26.48
2018-07-28T00:45:45.448Z,26.41
2018-07-28T00:47:00.175Z,26.34
2018-07-28T00:48:14.619Z,26.39
2018-07-28T00:49:29.280Z,26.37
2018-07-28T00:50:44.228Z,26.42
2018-07-28T00:51:58.573Z,26.44
2018-07-28T00:53:13.015Z,26.3
2018-07-28T00:54:27.228Z,26.31
2018-07-28T00:55:41.389Z,26.22
2018-07-28T00:56:55.838Z,26.24
2018-07-28T00:58:10.315Z,26.22
2018-07-28T00:59:24.715Z,26.24
2018-07-28T01:00:39.152Z,26.13
2018-07-28T01:01:53.333Z,26.07
2018-07-28T01:03:08.340Z,26.22
2018-07-28T01:04:22.786Z,26.07
2018-07-28T01:05:37.461Z,26.07
2018-07-28T01:06:51.151Z,26.1
2018-07-28T01:08:06.081Z,26.04
2018-07-28T01:09:20.586Z,25.99
2018-07-28T01:10:35.057Z,26.06
2018-07-28T01:11:50.192Z,25.96
2018-07-28T01:13:05.198Z,26.03
2018-07-28T01:14:19.096Z,26.06
2018-07-28T01:16:25.579Z,26.04
2018-07-28T01:17:40.021Z,26.03
2018-07-28T01:18:54.210Z,26.04
2018-07-28T01:20:08.867Z,25.92
2018-07-28T01:21:23.325Z,25.96
2018-07-28T01:22:38.400Z,25.85
2018-07-28T01:23:52.843Z,25.93
2018-07-28T01:25:07.286Z,25.91
2018-07-28T01:26:22.001Z,25.89
2018-07-28T01:27:36.174Z,25.91
2018-07-28T01:28:50.113Z,25.86
2018-07-28T01:30:05.005Z,25.77
2018-07-28T01:31:19.164Z,25.77
2018-07-28T01:32:33.148Z,25.83
2018-07-28T01:33:48.112Z,25.74
2018-07-28T01:35:03.360Z,25.73
2018-07-28T01:36:18.057Z,25.77
2018-07-28T01:37:32.270Z,25.78
2018-07-28T01:38:47.119Z,25.74
2018-07-28T01:40:01.799Z,25.77
2018-07-28T01:41:16.282Z,25.71
2018-07-28T01:42:30.456Z,25.63
2018-07-28T01:43:44.660Z,25.55
2018-07-28T01:44:59.312Z,25.63
2018-07-28T01:46:13.467Z,25.67
2018-07-28T01:47:28.422Z,25.58
2018-07-28T01:48:42.664Z,25.58
2018-07-28T01:49:57.545Z,25.52
2018-07-28T01:51:11.983Z,25.43
2018-07-28T01:52:26.675Z,25.52
2018-07-28T01:53:41.202Z,25.46
2018-07-28T01:54:56.106Z,25.46
2018-07-28T01:56:10.549Z,25.51
2018-07-28T01:57:25.244Z,25.4
2018-07-28T01:58:39.858Z,25.37
2018-07-28T01:59:54.271Z,25.46
2018-07-28T02:01:09.237Z,25.39
2018-07-28T02:02:24.165Z,25.48
2018-07-28T02:03:38.485Z,25.36
2018-07-28T02:04:52.432Z,25.3
2018-07-28T02:06:07.704Z,25.3
2018-07-28T02:07:22.388Z,25.4
2018-07-28T02:08:37.333Z,25.33
2018-07-28T02:09:51.879Z,25.31
2018-07-28T02:11:06.307Z,25.33
2018-07-28T02:12:20.992Z,25.31
2018-07-28T02:13:35.172Z,25.26
2018-07-28T02:14:49.812Z,25.24
2018-07-28T02:16:04.019Z,25.26
2018-07-28T02:17:18.709Z,25.21
2018-07-28T02:18:33.190Z,25.29
2018-07-28T02:19:47.894Z,25.19
2018-07-28T02:21:02.568Z,25.16
2018-07-28T02:22:17.456Z,25.16
2018-07-28T02:23:32.394Z,25.18
2018-07-28T02:24:47.211Z,25.22
2018-07-28T02:26:01.612Z,25.11
2018-07-28T02:27:16.019Z,25.12
2018-07-28T02:28:30.727Z,25.07
2018-07-28T02:29:45.428Z,24.99
2018-07-28T02:30:59.901Z,24.93
2018-07-28T02:32:14.400Z,25.01
2018-07-28T02:33:28.819Z,24.97
2018-07-28T02:34:43.770Z,24.96
2018-07-28T02:35:58.477Z,24.92
2018-07-28T02:37:13.196Z,24.88
2018-07-28T02:38:27.653Z,24.85
2018-07-28T02:39:42.103Z,24.94
2018-07-28T02:40:56.554Z,24.84
2018-07-28T02:42:11.292Z,24.84
2018-07-28T02:43:26.276Z,24.78
2018-07-28T02:44:40.721Z,24.69
2018-07-28T02:45:54.871Z,24.69
2018-07-28T02:47:09.344Z,24.71
2018-07-28T02:48:23.538Z,24.65
2018-07-28T02:49:38.006Z,24.61
2018-07-28T02:50:52.420Z,24.62
2018-07-28T02:52:07.196Z,24.65
2018-07-28T02:53:21.933Z,24.63
2018-07-28T02:54:36.088Z,24.62
2018-07-28T02:56:07.372Z,24.53
2018-07-28T02:57:21.277Z,24.58
2018-07-28T02:58:35.737Z,24.58
2018-07-28T02:59:50.181Z,24.56
2018-07-28T03:01:04.925Z,24.48
2018-07-28T03:02:19.354Z,24.5
2018-07-28T03:03:33.816Z,24.5
2018-07-28T03:04:48.515Z,24.48
2018-07-28T03:06:02.965Z,24.47
2018-07-28T03:07:17.171Z,24.47
2018-07-28T03:08:31.640Z,24.59
2018-07-28T03:09:46.079Z,24.46
2018-07-28T03:11:00.511Z,24.5
2018-07-28T03:12:15.229Z,24.44
2018-07-28T03:13:29.140Z,24.44
2018-07-28T03:14:43.611Z,24.43
2018-07-28T03:15:58.020Z,24.41
2018-07-28T03:17:12.756Z,24.43
2018-07-28T03:18:27.437Z,24.41
2018-07-28T03:19:42.361Z,24.41
2018-07-28T03:20:57.060Z,24.41
2018-07-28T03:22:11.780Z,24.47
2018-07-28T03:23:26.247Z,24.44
2018-07-28T03:24:40.680Z,24.32
2018-07-28T03:25:54.852Z,24.32
2018-07-28T03:27:09.352Z,24.38
2018-07-28T03:28:23.690Z,24.4
2018-07-28T03:29:38.097Z,24.41
2018-07-28T03:30:52.825Z,24.31
2018-07-28T03:32:07.113Z,24.26
2018-07-28T03:33:21.789Z,24.22
2018-07-28T03:34:36.740Z,24.1
2018-07-28T03:35:52.341Z,24.11
2018-07-28T03:37:06.765Z,24.09
2018-07-28T03:38:21.429Z,24.13
2018-07-28T03:39:36.137Z,24.18
2018-07-28T03:40:50.670Z,24.04
2018-07-28T03:42:04.853Z,24.03
2018-07-28T03:43:19.281Z,23.99
2018-07-28T03:44:33.951Z,23.99
2018-07-28T03:45:48.428Z,24
2018-07-28T03:47:02.813Z,24.03
2018-07-28T03:48:16.973Z,23.94
2018-07-28T03:49:31.270Z,23.92
2018-07-28T03:50:45.867Z,24.03
2018-07-28T03:52:00.550Z,24
2018-07-28T03:53:15.226Z,23.99
2018-07-28T03:54:29.138Z,23.92
2018-07-28T03:55:43.801Z,23.85
2018-07-28T03:56:58.017Z,23.89
2018-07-28T03:58:12.722Z,23.99
2018-07-28T03:59:27.078Z,23.96
2018-07-28T04:00:41.265Z,23.94
2018-07-28T04:01:55.634Z,23.96
2018-07-28T04:03:10.022Z,24.07
2018-07-28T04:04:24.820Z,24.07
2018-07-28T04:05:39.496Z,24.18
2018-07-28T04:06:55.342Z,24.26
2018-07-28T04:08:10.118Z,24.14
2018-07-28T04:09:24.653Z,24.1
2018-07-28T04:10:38.990Z,24.25
2018-07-28T04:11:53.760Z,24.32
2018-07-28T04:13:08.300Z,24.46
2018-07-28T04:14:23.454Z,24.69
2018-07-28T04:15:38.494Z,24.85
2018-07-28T04:16:52.609Z,25.01
2018-07-28T04:18:07.672Z,25.19
2018-07-28T04:19:22.274Z,25.68
2018-07-28T04:20:37.005Z,25.8
2018-07-28T04:21:51.662Z,25.85
2018-07-28T04:23:05.969Z,25.78
2018-07-28T04:24:20.606Z,26.23
2018-07-28T04:25:35.497Z,26.45
2018-07-28T04:26:50.021Z,26.78
2018-07-28T04:28:04.885Z,27.07
2018-07-28T04:29:19.607Z,27.45
2018-07-28T04:30:34.396Z,27.71
2018-07-28T04:31:48.556Z,28.08
2018-07-28T04:33:04.586Z,28.45
2018-07-28T04:34:18.720Z,28.57
2018-07-28T04:35:33.750Z,28.65
2018-07-28T04:36:48.659Z,28.65
2018-07-28T04:38:03.120Z,29.06
2018-07-28T04:39:18.343Z,28.84
2018-07-28T04:40:32.920Z,28.37
2018-07-28T04:41:46.946Z,28.52
2018-07-28T04:43:01.446Z,29.03
2018-07-28T04:44:16.489Z,29.61
2018-07-28T04:45:31.248Z,30.14
2018-07-28T04:46:46.003Z,30.59
2018-07-28T04:48:00.261Z,30.56
2018-07-28T04:49:14.444Z,30.98
2018-07-28T04:50:28.866Z,31.3
2018-07-28T04:51:43.969Z,31.18
2018-07-28T04:52:58.402Z,30.96
2018-07-28T04:54:12.913Z,31.22
2018-07-28T04:55:27.337Z,31.6
2018-07-28T04:56:41.535Z,31.95
2018-07-28T04:57:56.198Z,32.2
2018-07-28T04:59:10.698Z,32.41
2018-07-28T05:00:25.430Z,32.72
2018-07-28T05:01:39.863Z,32.73
2018-07-28T05:02:54.068Z,32.78
2018-07-28T05:04:08.612Z,32.57
2018-07-28T05:05:22.746Z,31.86
2018-07-28T05:06:37.483Z,31.44
2018-07-28T05:07:51.889Z,31.64
2018-07-28T05:09:06.840Z,32
2018-07-28T05:10:21.681Z,32.23
2018-07-28T05:11:35.893Z,32.6
2018-07-28T05:12:50.357Z,33
2018-07-28T05:14:05.052Z,33.28
2018-07-28T05:15:19.184Z,33.51
2018-07-28T05:16:34.241Z,33.35
2018-07-28T05:17:48.603Z,33.31
2018-07-28T05:19:02.531Z,33.35
2018-07-28T05:20:16.975Z,33.67
2018-07-28T05:21:31.182Z,33.87
2018-07-28T05:22:45.863Z,34.16
2018-07-28T05:24:00.293Z,34.26
2018-07-28T05:25:15.335Z,34.32
2018-07-28T05:26:29.770Z,34.31
2018-07-28T05:27:44.471Z,34.48
2018-07-28T05:28:59.188Z,34.35
2018-07-28T05:30:13.416Z,33.84
2018-07-28T05:31:28.134Z,32.37
2018-07-28T05:32:42.139Z,31.93
2018-07-28T05:33:57.190Z,31.57
2018-07-28T05:35:11.932Z,31.51
2018-07-28T05:36:26.617Z,31.04
2018-07-28T05:37:41.247Z,30.77
2018-07-28T05:38:56.345Z,30.48
2018-07-28T05:40:11.441Z,30.52
2018-07-28T05:41:26.589Z,30.06
2018-07-28T05:42:41.152Z,30.08
2018-07-28T05:43:55.986Z,30.21
2018-07-28T05:45:10.957Z,30.13
2018-07-28T05:46:25.707Z,30.1
2018-07-28T05:47:40.168Z,29.99
2018-07-28T05:48:54.217Z,29.69
2018-07-28T05:50:08.551Z,29.5
2018-07-28T05:51:23.819Z,29.39
2018-07-28T05:52:37.578Z,29.34
2018-07-28T05:53:51.762Z,29.34
2018-07-28T05:55:06.508Z,29.34
2018-07-28T05:56:20.546Z,29.35
2018-07-28T05:57:34.499Z,29.39
2018-07-28T05:58:48.711Z,29.5
2018-07-28T06:00:03.445Z,29.46
2018-07-28T06:01:17.853Z,29.27
2018-07-28T06:02:33.096Z,29.35
2018-07-28T06:03:47.472Z,29.34
2018-07-28T06:05:02.171Z,29.27
2018-07-28T06:06:17.498Z,29.3
2018-07-28T06:07:32.229Z,29.16
2018-07-28T06:08:46.946Z,29.03
2018-07-28T06:10:01.684Z,29.03
2018-07-28T06:11:16.178Z,29.03
2018-07-28T06:12:31.146Z,28.97
2018-07-28T06:14:12.919Z,29.03
2018-07-28T06:15:27.893Z,29
2018-07-28T06:16:42.247Z,28.9
2018-07-28T06:17:56.475Z,28.89
2018-07-28T06:19:10.709Z,28.78
2018-07-28T06:20:25.172Z,28.82
2018-07-28T06:21:40.087Z,28.94
2018-07-28T06:22:54.549Z,29.02
2018-07-28T06:24:09.030Z,29.13
2018-07-28T06:25:23.226Z,28.97
2018-07-28T06:26:37.958Z,28.77
2018-07-28T06:27:52.207Z,28.52
2018-07-28T06:29:06.436Z,28.43
2018-07-28T06:30:21.050Z,28.7
2018-07-28T06:31:36.284Z,28.9
2018-07-28T06:32:51.083Z,28.96
2018-07-28T06:34:06.074Z,29.03
2018-07-28T06:35:20.813Z,29.07
2018-07-28T06:36:35.481Z,28.93
2018-07-28T06:37:49.766Z,28.93
2018-07-28T06:39:04.192Z,28.9
2018-07-28T06:40:18.959Z,28.72
2018-07-28T06:41:33.668Z,28.8
2018-07-28T06:42:47.496Z,28.89
2018-07-28T06:44:02.072Z,28.97
2018-07-28T06:45:16.814Z,28.94
2018-07-28T06:47:02.267Z,28.97
2018-07-28T06:48:16.786Z,28.92
2018-07-28T06:49:31.212Z,28.86
2018-07-28T06:50:46.166Z,28.94
2018-07-28T06:52:02.964Z,29.05
2018-07-28T06:53:19.122Z,29.1
2018-07-28T06:54:36.397Z,29.22
2018-07-28T06:55:53.085Z,29.35
2018-07-28T06:57:09.889Z,29.61
2018-07-28T06:58:27.117Z,29.69
2018-07-28T06:59:44.718Z,29.83
2018-07-28T07:01:00.972Z,29.79
2018-07-28T07:02:18.145Z,29.98
2018-07-28T07:03:33.230Z,30.06
2018-07-28T07:04:47.661Z,30.36
2018-07-28T07:06:02.336Z,30.4
2018-07-28T07:07:17.265Z,30.49
2018-07-28T07:08:31.250Z,30.46
2018-07-28T07:09:46.033Z,30.44
2018-07-28T07:11:00.034Z,30.4
2018-07-28T07:12:14.988Z,30.52
2018-07-28T07:13:29.900Z,30.55
2018-07-28T07:14:44.345Z,30.39
2018-07-28T07:15:59.291Z,30.32
2018-07-28T07:17:14.336Z,30.05
2018-07-28T07:18:29.578Z,29.79
2018-07-28T07:19:44.181Z,29.69
2018-07-28T07:20:58.628Z,29.49
2018-07-28T07:22:12.613Z,29.25
2018-07-28T07:23:27.300Z,29.34
2018-07-28T07:24:41.814Z,29.35
2018-07-28T07:25:56.429Z,29.43
2018-07-28T07:27:11.114Z,29.55
2018-07-28T07:28:25.459Z,29.61
2018-07-28T07:29:39.910Z,29.71
2018-07-28T07:30:54.628Z,29.69
2018-07-28T07:32:08.823Z,29.73
2018-07-28T07:33:23.682Z,29.49
2018-07-28T07:34:38.381Z,29.39
2018-07-28T07:35:52.848Z,29.53
2018-07-28T07:37:07.116Z,29.68
2018-07-28T07:38:21.456Z,29.69
2018-07-28T07:39:35.914Z,29.81
2018-07-28T07:40:50.286Z,29.62
2018-07-28T07:42:04.738Z,29.55
2018-07-28T07:43:19.947Z,29.28
2018-07-28T07:44:34.408Z,29.18
2018-07-28T07:45:48.372Z,29.35
2018-07-28T07:47:02.570Z,29.5
2018-07-28T07:48:16.925Z,29.61
2018-07-28T07:49:31.967Z,29.64
2018-07-28T07:50:46.174Z,29.55
2018-07-28T07:52:00.934Z,29.89
2018-07-28T07:53:25.258Z,29.98
2018-07-28T07:54:40.283Z,30.33
2018-07-28T07:55:54.768Z,30.38
2018-07-28T07:57:09.778Z,30.49
2018-07-28T07:58:24.591Z,30.49
2018-07-28T07:59:39.286Z,30.29
2018-07-28T08:00:54.010Z,30.29
2018-07-28T08:02:08.707Z,30.32
2018-07-28T08:03:23.467Z,30.32
2018-07-28T08:04:38.482Z,30.18
2018-07-28T08:05:53.318Z,29.96
2018-07-28T08:07:08.044Z,30.06
2018-07-28T08:08:23.096Z,30.06
2018-07-28T08:09:37.295Z,30.03
2018-07-28T08:10:51.874Z,30.18
2018-07-28T08:12:06.354Z,30.43
2018-07-28T08:13:21.009Z,30.62
2018-07-28T08:14:35.049Z,30.49
2018-07-28T08:15:49.143Z,30.49
2018-07-28T08:17:04.180Z,30.35
2018-07-28T08:18:19.008Z,30.48
2018-07-28T08:19:34.069Z,30.35
2018-07-28T08:20:48.300Z,30.44
2018-07-28T08:22:02.643Z,30.48
2018-07-28T08:23:17.419Z,30.38
2018-07-28T08:24:32.278Z,30.18
2018-07-28T08:25:59.845Z,30.36
2018-07-28T08:27:14.062Z,30.38
2018-07-28T08:28:28.833Z,30.33
2018-07-28T08:29:43.026Z,30.27
2018-07-28T08:30:57.751Z,30.31
2018-07-28T08:32:12.525Z,30.38
2018-07-28T08:33:27.712Z,30.39
2018-07-28T08:34:42.365Z,30.44
2018-07-28T08:35:56.835Z,30.55
2018-07-28T08:37:11.841Z,30.43
2018-07-28T08:38:26.505Z,30.4
2018-07-28T08:39:41.509Z,30.24
2018-07-28T08:40:55.709Z,30.03
2018-07-28T08:42:10.157Z,30.01
2018-07-28T08:43:23.947Z,30.02
2018-07-28T08:44:38.412Z,29.99
2018-07-28T08:45:52.901Z,29.83
2018-07-28T08:47:06.858Z,29.74
2018-07-28T08:48:21.339Z,29.71
2018-07-28T08:49:35.816Z,29.62
2018-07-28T08:50:50.981Z,29.58
2018-07-28T08:52:05.192Z,29.59
2018-07-28T08:53:19.510Z,29.52
2018-07-28T08:54:34.298Z,29.46
2018-07-28T08:55:48.620Z,29.35
2018-07-28T08:57:03.666Z,29.24
2018-07-28T08:58:18.080Z,29.24
2018-07-28T08:59:32.654Z,29.3
2018-07-28T09:00:47.154Z,29.21
2018-07-28T09:02:01.768Z,29.27
2018-07-28T09:03:15.966Z,29.13
2018-07-28T09:04:31.108Z,29.13
2018-07-28T09:05:45.551Z,29.12
2018-07-28T09:07:00.599Z,29.09
2018-07-28T09:08:15.048Z,29.12
2018-07-28T09:09:29.364Z,29.15
2018-07-28T09:10:44.221Z,29.15
2018-07-28T09:11:58.308Z,29.32
2018-07-28T09:13:12.760Z,29.28
2018-07-28T09:14:27.127Z,29.34
2018-07-28T09:15:41.580Z,29.49
2018-07-28T09:16:55.997Z,29.65
2018-07-28T09:18:10.408Z,29.62
2018-07-28T09:19:25.150Z,29.74
2018-07-28T09:20:40.203Z,29.79
2018-07-28T09:21:54.815Z,29.68
2018-07-28T09:23:09.820Z,29.69
2018-07-28T09:24:24.684Z,29.61
2018-07-28T09:25:39.632Z,29.62
2018-07-28T09:26:54.360Z,29.55
2018-07-28T09:28:08.590Z,29.37
2018-07-28T09:29:23.847Z,29.37
2018-07-28T09:30:38.296Z,29.13
2018-07-28T09:32:33.284Z,29.07
2018-07-28T09:33:48.053Z,28.92
2018-07-28T09:35:02.677Z,28.94
2018-07-28T09:36:16.938Z,29
2018-07-28T09:37:31.136Z,29.06
2018-07-28T09:38:45.976Z,29
2018-07-28T09:39:59.956Z,29.09
2018-07-28T09:41:15.120Z,29
2018-07-28T09:42:29.870Z,28.94
2018-07-28T09:43:43.895Z,29.06
2018-07-28T09:44:58.468Z,29.06
2018-07-28T09:46:12.999Z,29.05
2018-07-28T09:47:30.580Z,29.15
2018-07-28T09:48:45.032Z,29.34
2018-07-28T09:49:59.013Z,29.58
2018-07-28T09:51:14.073Z,29.81
2018-07-28T09:53:00.877Z,30.03
2018-07-28T09:54:15.372Z,30.23
2018-07-28T09:55:29.938Z,30.17
2018-07-28T09:56:44.671Z,30.44
2018-07-28T09:57:59.435Z,30.62
2018-07-28T09:59:14.358Z,30.7
2018-07-28T10:00:28.993Z,30.89
2018-07-28T10:01:42.940Z,30.93
2018-07-28T10:02:58.194Z,30.96
2018-07-28T10:04:12.890Z,30.74
2018-07-28T10:05:27.066Z,30.92
2018-07-28T10:06:41.961Z,30.96
2018-07-28T10:07:56.676Z,31.22
2018-07-28T10:09:11.200Z,31.42
2018-07-28T10:10:25.693Z,31.25
2018-07-28T10:11:40.590Z,31.08
2018-07-28T10:12:54.885Z,31.29
2018-07-28T10:14:09.333Z,31.41
2018-07-28T10:15:24.307Z,31.35
2018-07-28T10:16:38.964Z,31.15
2018-07-28T10:17:53.431Z,31.32
2018-07-28T10:19:07.616Z,31.26
2018-07-28T10:20:22.025Z,31.13
2018-07-28T10:21:37.166Z,31.23
2018-07-28T10:22:52.327Z,31.17
2018-07-28T10:24:06.927Z,31.23
2018-07-28T10:25:21.610Z,31.22
2018-07-28T10:26:35.891Z,31.35
2018-07-28T10:27:50.625Z,31.22
2018-07-28T10:29:11.103Z,31.13
2018-07-28T10:30:25.288Z,31.11
2018-07-28T10:31:39.894Z,31.23
2018-07-28T10:32:54.391Z,31.3
2018-07-28T10:34:09.406Z,31.3
2018-07-28T10:35:23.832Z,31.42
2018-07-28T10:36:38.796Z,31.54
2018-07-28T10:37:53.375Z,31.6
2018-07-28T10:39:08.340Z,31.69
2018-07-28T10:40:23.334Z,31.51
2018-07-28T10:41:38.105Z,31.42
2018-07-28T10:42:52.300Z,31.37
2018-07-28T10:44:07.257Z,31.36
2018-07-28T10:45:21.476Z,31.17
2018-07-28T10:46:36.362Z,30.93
2018-07-28T10:47:51.077Z,30.93
2018-07-28T10:49:05.730Z,30.95
2018-07-28T10:50:19.961Z,31.05
2018-07-28T10:51:34.958Z,31.13
2018-07-28T10:52:49.490Z,31.22
2018-07-28T10:54:04.175Z,31.22
2018-07-28T10:55:18.382Z,31.39
2018-07-28T10:56:33.308Z,31.41
2018-07-28T10:57:47.045Z,31.57
2018-07-28T10:59:02.067Z,31.59
2018-07-28T11:00:16.605Z,31.45
2018-07-28T11:01:30.570Z,31.39
2018-07-28T11:02:58.188Z,31.32
2018-07-28T11:04:51.184Z,31.37
2018-07-28T11:06:06.103Z,31.41
2018-07-28T11:07:20.977Z,31.45
2018-07-28T11:08:35.191Z,31.62
2018-07-28T11:09:50.005Z,31.63
2018-07-28T11:11:37.286Z,31.74
2018-07-28T11:12:51.411Z,31.97
2018-07-28T11:14:05.651Z,32.27
2018-07-28T11:15:19.596Z,32.39
2018-07-28T11:16:34.431Z,32.34
2018-07-28T11:17:48.757Z,32.6
2018-07-28T11:19:04.124Z,32.64
2018-07-28T11:20:19.334Z,32.57
2018-07-28T11:21:34.107Z,32.54
2018-07-28T11:22:49.256Z,32.01
2018-07-28T11:24:04.103Z,31.7
2018-07-28T11:25:19.413Z,31.51
2018-07-28T11:26:34.305Z,31.41
2018-07-28T11:27:48.914Z,31.25
2018-07-28T11:29:03.113Z,31.26
2018-07-28T11:30:17.609Z,31.41
2018-07-28T11:31:32.729Z,31.42
2018-07-28T11:32:46.882Z,31.59
2018-07-28T11:34:01.871Z,31.64
2018-07-28T11:35:17.302Z,31.85
2018-07-28T11:36:31.957Z,31.98
2018-07-28T11:37:48.171Z,32.11
2018-07-28T11:39:04.209Z,32.29
2018-07-28T11:40:18.899Z,32.12
2018-07-28T11:41:33.864Z,32.04
2018-07-28T11:42:48.485Z,32.09
2018-07-28T11:44:03.208Z,32.27
2018-07-28T11:45:18.322Z,32.24
2018-07-28T11:46:33.318Z,32.23
2018-07-28T11:47:48.036Z,32.22
2018-07-28T11:49:02.748Z,32.26
2018-07-28T11:50:17.472Z,32.29
2018-07-28T11:51:32.080Z,32.26
2018-07-28T11:52:46.853Z,32.23
2018-07-28T11:54:01.014Z,32.2
2018-07-28T11:55:15.837Z,32.23
2018-07-28T11:56:31.188Z,32.23
2018-07-28T11:57:45.959Z,32.17
2018-07-28T11:59:01.257Z,32.19
2018-07-28T12:00:16.612Z,32.27
2018-07-28T12:01:31.262Z,32.27
2018-07-28T12:02:47.060Z,32.35
2018-07-28T12:04:01.633Z,32.26
2018-07-28T12:05:15.637Z,32.41
2018-07-28T12:06:29.847Z,32.49
2018-07-28T12:07:44.619Z,32.54
2018-07-28T12:08:59.645Z,32.59
2018-07-28T12:10:14.357Z,32.66
2018-07-28T12:11:29.601Z,32.72
2018-07-28T12:12:43.822Z,32.88
2018-07-28T12:13:59.149Z,32.76
2018-07-28T12:15:14.253Z,32.91
2018-07-28T12:16:28.952Z,32.94
2018-07-28T12:17:43.807Z,32.91
2018-07-28T12:18:58.583Z,32.9
2018-07-28T12:20:12.558Z,32.76
2018-07-28T12:21:26.797Z,32.85
2018-07-28T12:22:41.495Z,32.88
2018-07-28T12:23:56.336Z,32.94
2018-07-28T12:25:11.071Z,32.98
2018-07-28T12:26:25.821Z,33.04
2018-07-28T12:27:39.805Z,32.97
2018-07-28T12:28:54.285Z,33.05
2018-07-28T12:30:08.792Z,32.98
2018-07-28T12:31:23.241Z,32.95
2018-07-28T12:32:39.368Z,33.08
2018-07-28T12:33:54.616Z,32.97
2018-07-28T12:35:09.155Z,32.88
2018-07-28T12:36:23.887Z,32.6
2018-07-28T12:37:38.832Z,32.48
2018-07-28T12:38:53.010Z,32.34
2018-07-28T12:40:08.400Z,32.38
2018-07-28T12:41:23.349Z,32.45
2018-07-28T12:42:37.806Z,32.41
2018-07-28T12:43:52.259Z,32.38
2018-07-28T12:45:13.127Z,32.44
2018-07-28T12:46:27.857Z,32.54
2018-07-28T12:47:42.587Z,32.48
2018-07-28T12:48:57.414Z,32.45
2018-07-28T12:50:11.830Z,32.51
2018-07-28T12:51:26.570Z,32.49
2018-07-28T12:52:41.037Z,32.49
2018-07-28T12:53:55.220Z,32.66
2018-07-28T12:55:09.316Z,32.88
2018-07-28T12:56:24.503Z,32.98
2018-07-28T12:57:39.049Z,33.12
2018-07-28T12:58:53.545Z,33.23
2018-07-28T13:00:08.027Z,33.29
2018-07-28T13:01:22.747Z,33.32
2018-07-28T13:02:37.501Z,33.35
2018-07-28T13:03:51.567Z,33.29
2018-07-28T13:05:06.871Z,33.39
2018-07-28T13:06:21.472Z,33.5
2018-07-28T13:07:36.315Z,33.61
2018-07-28T13:08:50.806Z,33.65
2018-07-28T13:10:05.903Z,33.69
2018-07-28T13:11:21.470Z,33.79
2018-07-28T13:12:36.898Z,33.82
2018-07-28T13:13:51.867Z,33.92
2018-07-28T13:15:06.993Z,33.84
2018-07-28T13:16:21.456Z,33.72
2018-07-28T13:17:35.989Z,33.77
2018-07-28T13:18:50.480Z,33.84
2018-07-28T13:20:05.272Z,33.63
2018-07-28T13:21:20.476Z,33.57
2018-07-28T13:22:35.051Z,33.58
2018-07-28T13:23:50.496Z,33.77
2018-07-28T13:25:05.228Z,33.66
2018-07-28T13:26:20.241Z,33.84
2018-07-28T13:27:35.241Z,33.76
2018-07-28T13:28:49.931Z,33.73
2018-07-28T13:30:04.423Z,33.82
2018-07-28T13:31:18.937Z,33.7
2018-07-28T13:32:33.098Z,33.88
2018-07-28T13:33:47.536Z,34.13
2018-07-28T13:35:01.525Z,34.18
2018-07-28T13:36:16.099Z,34.19
2018-07-28T13:37:30.747Z,34.32
2018-07-28T13:38:45.533Z,34.16
2018-07-28T13:40:00.022Z,33.97
2018-07-28T13:41:14.436Z,33.82
2018-07-28T13:42:28.928Z,33.85
2018-07-28T13:43:43.415Z,33.48
2018-07-28T13:44:57.633Z,33.36
2018-07-28T13:46:12.199Z,33.12
2018-07-28T13:47:26.692Z,32.97
2018-07-28T13:48:41.426Z,32.53
2018-07-28T13:49:55.645Z,31.85
2018-07-28T13:51:10.660Z,31.35
2018-07-28T13:52:25.140Z,30.85
2018-07-28T13:53:39.649Z,30.65
2018-07-28T13:54:54.883Z,30.35
2018-07-28T13:56:09.080Z,30.29
2018-07-28T13:57:23.836Z,29.83
2018-07-28T13:58:38.061Z,29.02
2018-07-28T13:59:52.781Z,27.88
2018-07-28T14:01:07.281Z,26.97
2018-07-28T14:02:22.006Z,26.42
2018-07-28T14:03:36.723Z,26.13
2018-07-28T14:04:51.179Z,26.1
2018-07-28T14:06:05.738Z,26.19
2018-07-28T14:07:21.651Z,26.29
2018-07-28T14:08:35.890Z,26.55
2018-07-28T14:09:50.083Z,26.68
2018-07-28T14:11:04.247Z,26.76
2018-07-28T14:12:19.104Z,26.79
2018-07-28T14:13:34.221Z,26.83
2018-07-28T14:14:48.781Z,26.68
2018-07-28T14:16:03.337Z,26.71
2018-07-28T14:17:18.204Z,26.81
2018-07-28T14:18:34.507Z,26.68
2018-07-28T14:19:48.160Z,26.55
2018-07-28T14:21:02.866Z,26.56
2018-07-28T14:22:17.147Z,26.79
2018-07-28T14:23:32.181Z,26.96
2018-07-28T14:24:46.691Z,27.07
2018-07-28T14:26:01.778Z,27.04
2018-07-28T14:27:15.680Z,27.08
2018-07-28T14:28:31.064Z,27.1
2018-07-28T14:29:45.782Z,27.11
2018-07-28T14:31:00.002Z,27.08
2018-07-28T14:32:15.019Z,27
2018-07-28T14:33:29.920Z,26.98
2018-07-28T14:34:44.109Z,26.96
2018-07-28T14:35:58.321Z,26.88
2018-07-28T14:37:13.303Z,26.96
2018-07-28T14:38:28.052Z,26.86
2018-07-28T14:39:42.014Z,26.96
2018-07-28T14:40:56.465Z,27.04
2018-07-28T14:42:10.678Z,27.16
2018-07-28T14:43:25.016Z,27.29
2018-07-28T14:44:39.758Z,27.38
2018-07-28T14:45:54.266Z,27.67
2018-07-28T14:47:08.721Z,27.85
2018-07-28T14:48:23.236Z,27.97
2018-07-28T14:49:37.675Z,28
2018-07-28T14:50:52.199Z,28.19
2018-07-28T14:52:06.450Z,28.18
2018-07-28T14:53:20.808Z,28.43
2018-07-28T14:54:35.618Z,28.5
2018-07-28T14:55:50.621Z,28.68
2018-07-28T14:57:05.383Z,28.94
2018-07-28T14:58:19.466Z,29.03
2018-07-28T14:59:33.718Z,29.21
2018-07-28T15:00:48.334Z,29.27
2018-07-28T15:02:03.277Z,29.3
2018-07-28T15:03:17.989Z,29.22
2018-07-28T15:04:32.812Z,29.27
2018-07-28T15:05:47.340Z,29.25
2018-07-28T15:07:02.187Z,29.12
2018-07-28T15:08:17.336Z,29.1
2018-07-28T15:09:32.312Z,29.07
2018-07-28T15:10:47.303Z,29.03
2018-07-28T15:12:02.031Z,29.05
2018-07-28T15:13:16.403Z,29.07
2018-07-28T15:14:31.231Z,29
2018-07-28T15:15:44.766Z,29.05
2018-07-28T15:16:59.372Z,29.09
2018-07-28T15:18:14.195Z,29.06
2018-07-28T15:19:28.594Z,29.03
2018-07-28T15:20:43.575Z,28.93
2018-07-28T15:21:57.551Z,29.07
2018-07-28T15:23:11.981Z,29.05
2018-07-28T15:24:26.556Z,29.13
2018-07-28T15:25:41.533Z,29.25
2018-07-28T15:26:56.591Z,29.12
2018-07-28T15:28:10.837Z,29.1
2018-07-28T15:29:25.423Z,29.03
2018-07-28T15:30:39.682Z,29.12
2018-07-28T15:31:54.384Z,29.15
2018-07-28T15:33:09.003Z,29.27
2018-07-28T15:34:24.133Z,29.25
2018-07-28T15:35:38.829Z,29.34
2018-07-28T15:36:53.389Z,29.4
2018-07-28T15:38:07.574Z,29.46
2018-07-28T15:39:22.029Z,29.49
2018-07-28T15:40:36.313Z,29.62
2018-07-28T15:41:50.512Z,29.65
2018-07-28T15:43:04.756Z,29.79
2018-07-28T15:44:19.179Z,29.86
2018-07-28T15:45:33.246Z,30.05
2018-07-28T15:46:48.437Z,30.05
2018-07-28T15:48:03.574Z,30.11
2018-07-28T15:49:18.111Z,30.18
2018-07-28T15:50:32.684Z,30.14
2018-07-28T15:51:46.412Z,30.16
2018-07-28T15:53:01.449Z,30.31
2018-07-28T15:54:15.644Z,30.2
2018-07-28T15:55:30.147Z,30.29
2018-07-28T15:56:44.593Z,30.31
2018-07-28T15:57:59.279Z,30.23
2018-07-28T15:59:14.028Z,30.21
2018-07-28T16:00:27.981Z,30.11
2018-07-28T16:01:42.817Z,30.05
2018-07-28T16:02:57.706Z,30.02
2018-07-28T16:04:12.754Z,30.05
2018-07-28T16:05:28.173Z,30.05
2018-07-28T16:06:53.345Z,30.16
2018-07-28T16:08:08.055Z,30.2
2018-07-28T16:09:22.353Z,30.2
2018-07-28T16:10:37.197Z,30.17